Time;durP1;ratioP1;P1;durP2;ratioP2;P2;SDS_P1;SDS_P2;PMS_P1;PMS_P2;Temp;Humidity;BMP_temperature;BMP_pressure;BME280_temperature;BME280_humidity;BME280_pressure;Samples;Min_cycle;Max_cycle;Signal;HPM_P1;HPM_P2
2022/08/06 00:01:44;;;;;;;7.03;1.13;;;;;;;;;;6214013;23;20437;-90
2022/08/06 00:04:10;;;;;;;7.47;1.25;;;;;;;;;;6214468;23;20004;-90
2022/08/06 00:06:36;;;;;;;4.32;1.05;;;;;;;;;;6214316;23;20011;-90
2022/08/06 00:09:02;;;;;;;3.33;1.23;;;;;;;;;;6214119;23;20012;-90
2022/08/06 00:11:28;;;;;;;4.50;1.88;;;;;;;;;;6239966;23;20483;-89
2022/08/06 00:13:54;;;;;;;5.50;1.20;;;;;;;;;;6214360;23;20013;-89
2022/08/06 00:16:20;;;;;;;2.10;1.17;;;;;;;;;;6214410;23;20012;-89
2022/08/06 00:18:46;;;;;;;8.57;1.20;;;;;;;;;;6214902;23;20008;-89
2022/08/06 00:21:18;;;;;;;3.45;1.33;;;;;;;;;;6216142;22;20043;-89
2022/08/06 00:23:51;;;;;;;4.25;1.20;;;;;;;;;;6214803;23;20444;-90
2022/08/06 00:26:17;;;;;;;3.35;1.40;;;;;;;;;;6213600;23;20012;-89
2022/08/06 00:28:43;;;;;;;4.65;1.45;;;;;;;;;;6240558;23;20419;-89
2022/08/06 00:31:09;;;;;;;9.88;1.38;;;;;;;;;;6241352;23;20078;-89
2022/08/06 00:33:36;;;;;;;4.03;1.20;;;;;;;;;;6213489;23;20099;-89
2022/08/06 00:36:02;;;;;;;3.38;0.93;;;;;;;;;;6213347;23;20348;-90
2022/08/06 00:38:28;;;;;;;4.18;1.17;;;;;;;;;;6214567;23;20095;-89
2022/08/06 00:40:54;;;;;;;4.68;1.23;;;;;;;;;;6212101;23;20438;-89
2022/08/06 00:43:21;;;;;;;1.75;1.15;;;;;;;;;;6241089;23;20011;-89
2022/08/06 00:45:47;;;;;;;1.88;1.13;;;;;;;;;;6213502;23;20023;-90
2022/08/06 00:48:13;;;;;;;5.78;2.38;;;;;;;;;;6214175;23;20008;-90
2022/08/06 00:50:40;;;;;;;12.35;3.40;;;;;;;;;;6215627;23;20019;-89
2022/08/06 00:53:06;;;;;;;10.93;1.10;;;;;;;;;;6215701;23;20004;-90
2022/08/06 00:55:32;;;;;;;3.08;1.20;;;;;;;;;;6214757;23;20044;-90
2022/08/06 00:57:58;;;;;;;3.55;1.10;;;;;;;;;;6243652;23;20084;-89
2022/08/06 01:00:24;;;;;;;8.80;1.20;;;;;;;;;;6215764;23;20008;-89
2022/08/06 01:02:50;;;;;;;4.32;0.82;;;;;;;;;;6216580;23;20004;-89
2022/08/06 01:05:16;;;;;;;4.38;1.45;;;;;;;;;;6214682;23;20044;-89
2022/08/06 01:07:43;;;;;;;3.40;1.10;;;;;;;;;;6216847;23;20201;-89
2022/08/06 01:10:09;;;;;;;3.60;2.03;;;;;;;;;;6216513;23;20015;-90
2022/08/06 01:12:35;;;;;;;2.55;1.50;;;;;;;;;;6216752;23;20000;-88
2022/08/06 01:15:01;;;;;;;9.90;1.25;;;;;;;;;;6217981;23;20010;-90
2022/08/06 01:17:31;;;;;;;3.83;1.27;;;;;;;;;;6222151;23;20076;-89
2022/08/06 01:19:57;;;;;;;2.00;1.00;;;;;;;;;;6249048;23;19996;-88
2022/08/06 01:22:33;;;;;;;1.67;1.30;;;;;;;;;;6222658;22;20035;-89
2022/08/06 01:24:59;;;;;;;;;;;;;;;;;;6249398;23;20022;-88
2022/08/06 01:27:37;;;;;;;3.53;1.05;;;;;;;;;;6219803;23;19911;-89
2022/08/06 01:30:05;;;;;;;1.55;1.00;;;;;;;;;;6219331;23;20004;-88
2022/08/06 01:32:38;;;;;;;3.60;1.27;;;;;;;;;;6219178;23;20455;-88
2022/08/06 01:35:09;;;;;;;2.22;1.02;;;;;;;;;;6216534;23;20059;-89
2022/08/06 01:37:40;;;;;;;3.70;1.10;;;;;;;;;;6216889;23;20004;-88
2022/08/06 01:40:15;;;;;;;2.63;1.20;;;;;;;;;;6214344;23;20054;-89
2022/08/06 01:42:41;;;;;;;5.28;1.70;;;;;;;;;;6214598;23;20344;-89
2022/08/06 01:45:11;;;;;;;0.88;0.88;;;;;;;;;;6214552;23;20428;-88
2022/08/06 01:47:39;;;;;;;5.38;1.45;;;;;;;;;;6214162;23;20050;-89
2022/08/06 01:50:06;;;;;;;2.38;1.05;;;;;;;;;;6214011;23;20000;-89
2022/08/06 01:52:34;;;;;;;2.58;1.20;;;;;;;;;;6214036;23;20042;-89
2022/08/06 01:55:01;;;;;;;3.28;1.00;;;;;;;;;;6213047;23;20307;-89
2022/08/06 01:57:27;;;;;;;2.03;1.10;;;;;;;;;;6213590;23;20007;-89
2022/08/06 01:59:54;;;;;;;4.00;1.25;;;;;;;;;;6213040;23;20403;-89
2022/08/06 02:02:24;;;;;;;1.83;1.23;;;;;;;;;;6213407;23;20383;-89
2022/08/06 02:04:52;;;;;;;5.80;1.27;;;;;;;;;;6214004;23;20008;-89
2022/08/06 02:07:21;;;;;;;1.52;1.20;;;;;;;;;;6213674;23;20004;-89
2022/08/06 02:09:48;;;;;;;3.75;1.50;;;;;;;;;;6239919;23;20410;-89
2022/08/06 02:12:15;;;;;;;4.38;1.50;;;;;;;;;;6240056;23;20069;-89
2022/08/06 02:15:01;;;;;;;2.58;1.50;;;;;;;;;;6212811;23;20012;-89
2022/08/06 02:17:32;;;;;;;4.43;1.42;;;;;;;;;;6213073;23;20015;-89
2022/08/06 02:20:01;;;;;;;1.60;1.30;;;;;;;;;;6213764;23;20008;-89
2022/08/06 02:22:29;;;;;;;2.88;1.10;;;;;;;;;;6214321;22;20087;-89
2022/08/06 02:24:56;;;;;;;10.15;1.60;;;;;;;;;;6212961;23;20232;-89
2022/08/06 02:27:23;;;;;;;5.07;1.23;;;;;;;;;;6212592;23;20474;-88
2022/08/06 02:29:51;;;;;;;4.82;1.63;;;;;;;;;;6213535;23;20000;-89
2022/08/06 02:32:17;;;;;;;3.65;1.67;;;;;;;;;;6212814;23;20008;-89
2022/08/06 02:34:43;;;;;;;6.63;1.70;;;;;;;;;;6213462;23;20062;-89
2022/08/06 02:37:13;;;;;;;4.28;1.50;;;;;;;;;;6213252;23;20055;-89
2022/08/06 02:39:47;;;;;;;5.18;1.58;;;;;;;;;;6211339;23;20099;-89
2022/08/06 02:42:18;;;;;;;2.10;1.40;;;;;;;;;;6212160;23;20020;-90
2022/08/06 02:44:58;;;;;;;4.60;1.70;;;;;;;;;;6239999;23;20296;-88
2022/08/06 02:47:27;;;;;;;2.45;1.42;;;;;;;;;;6213574;23;20011;-89
2022/08/06 02:49:55;;;;;;;5.18;1.58;;;;;;;;;;6213594;23;20345;-89
2022/08/06 02:52:45;;;;;;;4.32;1.65;;;;;;;;;;6213638;23;20027;-89
2022/08/06 02:55:12;;;;;;;4.45;1.60;;;;;;;;;;6144559;23;20360;-89
2022/08/06 02:57:44;;;;;;;5.40;1.70;;;;;;;;;;6213964;23;20010;-90
2022/08/06 03:00:10;;;;;;;3.05;1.70;;;;;;;;;;6212677;23;20340;-89
2022/08/06 03:02:38;;;;;;;3.55;2.03;;;;;;;;;;6213254;23;20007;-89
2022/08/06 03:05:05;;;;;;;1.95;1.70;;;;;;;;;;6239848;23;20004;-90
2022/08/06 03:07:32;;;;;;;8.13;1.80;;;;;;;;;;6213329;23;20324;-89
2022/08/06 03:10:00;;;;;;;6.07;1.67;;;;;;;;;;6212842;23;20005;-89
2022/08/06 03:12:26;;;;;;;2.30;1.67;;;;;;;;;;6212160;23;20637;-90
2022/08/06 03:14:53;;;;;;;3.15;1.90;;;;;;;;;;6213200;23;20008;-90
2022/08/06 03:17:19;;;;;;;2.80;1.35;;;;;;;;;;6212415;23;20058;-89
2022/08/06 03:19:46;;;;;;;6.00;1.73;;;;;;;;;;6212328;23;20008;-89
2022/08/06 03:22:12;;;;;;;5.32;1.80;;;;;;;;;;6213915;22;20444;-89
2022/08/06 03:24:40;;;;;;;2.53;1.48;;;;;;;;;;6212613;23;20054;-89
2022/08/06 03:27:07;;;;;;;4.80;1.83;;;;;;;;;;6211865;23;20090;-89
2022/08/06 03:29:34;;;;;;;3.97;1.75;;;;;;;;;;6213582;23;20007;-89
2022/08/06 03:32:01;;;;;;;5.00;1.60;;;;;;;;;;6239912;23;20004;-89
2022/08/06 03:34:28;;;;;;;5.40;1.60;;;;;;;;;;6212780;23;20007;-89
2022/08/06 03:36:54;;;;;;;6.10;1.60;;;;;;;;;;6211988;23;20014;-89
2022/08/06 03:39:21;;;;;;;3.35;1.60;;;;;;;;;;6211559;23;20054;-89
2022/08/06 03:41:47;;;;;;;1.55;1.45;;;;;;;;;;6211694;23;20433;-89
2022/08/06 03:44:14;;;;;;;5.90;1.63;;;;;;;;;;6213077;23;20616;-89
2022/08/06 03:47:01;;;;;;;2.22;1.50;;;;;;;;;;6212685;23;20587;-89
2022/08/06 03:49:29;;;;;;;3.03;1.45;;;;;;;;;;6213078;23;20439;-89
2022/08/06 03:51:56;;;;;;;4.63;2.10;;;;;;;;;;6212608;23;20380;-89
2022/08/06 03:54:25;;;;;;;2.30;1.60;;;;;;;;;;6239705;23;20080;-89
2022/08/06 03:56:52;;;;;;;4.00;1.80;;;;;;;;;;6211656;23;20008;-89
2022/08/06 03:59:19;;;;;;;4.95;1.50;;;;;;;;;;6212791;23;20019;-89
2022/08/06 04:01:45;;;;;;;9.13;1.67;;;;;;;;;;6211712;23;20093;-89
2022/08/06 04:04:12;;;;;;;2.78;1.58;;;;;;;;;;6212829;23;20000;-89
2022/08/06 04:06:38;;;;;;;3.53;1.88;;;;;;;;;;6211889;23;20285;-89
2022/08/06 04:09:05;;;;;;;4.22;2.00;;;;;;;;;;6212595;23;20012;-89
2022/08/06 04:11:32;;;;;;;7.32;1.75;;;;;;;;;;6211710;23;20039;-89
2022/08/06 04:13:59;;;;;;;5.63;1.77;;;;;;;;;;6239432;23;20004;-89
2022/08/06 04:16:26;;;;;;;2.10;1.60;;;;;;;;;;6212678;23;20379;-89
2022/08/06 04:18:55;;;;;;;1.70;1.42;;;;;;;;;;6212389;23;20547;-89
2022/08/06 04:21:22;;;;;;;2.95;1.77;;;;;;;;;;6212893;22;20035;-89
2022/08/06 04:23:49;;;;;;;1.55;1.20;;;;;;;;;;6239925;23;20468;-89
2022/08/06 04:26:17;;;;;;;8.70;1.52;;;;;;;;;;6213960;23;20004;-89
2022/08/06 04:28:46;;;;;;;1.75;1.40;;;;;;;;;;6214449;23;20000;-88
2022/08/06 04:31:13;;;;;;;3.90;2.28;;;;;;;;;;6214914;23;20014;-89
2022/08/06 04:33:40;;;;;;;4.10;1.52;;;;;;;;;;6214483;23;20004;-89
2022/08/06 04:36:06;;;;;;;4.15;1.27;;;;;;;;;;6212852;23;20270;-88
2022/08/06 04:38:33;;;;;;;2.15;1.40;;;;;;;;;;6214416;23;20460;-89
2022/08/06 04:40:59;;;;;;;5.38;2.65;;;;;;;;;;6238730;23;20010;-89
2022/08/06 04:43:25;;;;;;;2.30;1.38;;;;;;;;;;6214427;23;20012;-89
2022/08/06 04:45:51;;;;;;;2.97;1.42;;;;;;;;;;6214488;23;20428;-88
2022/08/06 04:48:18;;;;;;;2.08;1.10;;;;;;;;;;6214156;23;20429;-89
2022/08/06 04:50:44;;;;;;;8.68;1.30;;;;;;;;;;6214437;23;20094;-89
2022/08/06 04:53:14;;;;;;;9.05;1.38;;;;;;;;;;6213985;23;20008;-89
2022/08/06 04:55:41;;;;;;;1.40;1.05;;;;;;;;;;6213654;23;20016;-89
2022/08/06 04:58:08;;;;;;;3.78;1.23;;;;;;;;;;6214088;23;20007;-90
2022/08/06 05:00:36;;;;;;;1.80;1.23;;;;;;;;;;6240938;23;20004;-89
2022/08/06 05:03:02;;;;;;;3.45;1.38;;;;;;;;;;6213721;23;20137;-89
2022/08/06 05:05:30;;;;;;;1.48;1.30;;;;;;;;;;6213919;23;20004;-89
2022/08/06 05:07:57;;;;;;;1.92;1.38;;;;;;;;;;6214158;23;20000;-89
2022/08/06 05:10:27;;;;;;;2.80;1.60;;;;;;;;;;6212667;23;20004;-88
2022/08/06 05:12:55;;;;;;;3.40;1.38;;;;;;;;;;6214041;23;20004;-89
2022/08/06 05:15:24;;;;;;;3.10;1.38;;;;;;;;;;6240964;23;20314;-90
2022/08/06 05:17:53;;;;;;;1.50;1.33;;;;;;;;;;6214082;23;20428;-89
2022/08/06 05:20:20;;;;;;;3.20;1.52;;;;;;;;;;6240393;23;19997;-89
2022/08/06 05:22:49;;;;;;;2.95;1.63;;;;;;;;;;6215582;22;20015;-89
2022/08/06 05:25:16;;;;;;;3.58;1.40;;;;;;;;;;6213568;23;20091;-89
2022/08/06 05:27:42;;;;;;;1.90;1.50;;;;;;;;;;6214377;23;20015;-89
2022/08/06 05:30:09;;;;;;;4.20;2.38;;;;;;;;;;6241110;23;20004;-89
2022/08/06 05:32:45;;;;;;;1.40;1.30;;;;;;;;;;6240899;23;20066;-89
2022/08/06 05:35:11;;;;;;;2.40;1.38;;;;;;;;;;6214578;23;20000;-88
2022/08/06 05:37:37;;;;;;;4.13;1.98;;;;;;;;;;6213813;23;20297;-89
2022/08/06 05:40:04;;;;;;;4.32;1.23;;;;;;;;;;6212142;23;20413;-88
2022/08/06 05:42:30;;;;;;;2.53;1.35;;;;;;;;;;6214341;23;20375;-89
2022/08/06 05:44:56;;;;;;;1.70;1.30;;;;;;;;;;6215030;23;20057;-89
2022/08/06 05:47:36;;;;;;;1.73;1.20;;;;;;;;;;6218892;23;20053;-88
2022/08/06 05:50:06;;;;;;;10.13;1.33;;;;;;;;;;6219459;23;20090;-89
2022/08/06 05:52:37;;;;;;;5.90;2.17;;;;;;;;;;6245513;23;20391;-88
2022/08/06 05:55:12;;;;;;;6.88;3.00;;;;;;;;;;6217094;23;20012;-89
2022/08/06 05:57:56;;;;;;;3.45;1.40;;;;;;;;;;6243818;23;20008;-88
2022/08/06 06:00:24;;;;;;;4.68;2.55;;;;;;;;;;6215465;23;20019;-87
2022/08/06 06:02:51;;;;;;;4.70;1.98;;;;;;;;;;6215987;23;20099;-89
2022/08/06 06:05:18;;;;;;;9.00;1.83;;;;;;;;;;6214530;23;20008;-89
2022/08/06 06:07:44;;;;;;;2.30;1.33;;;;;;;;;;6241928;23;20000;-89
2022/08/06 06:10:12;;;;;;;5.30;1.27;;;;;;;;;;6213572;23;20000;-89
2022/08/06 06:12:39;;;;;;;1.65;1.10;;;;;;;;;;6213881;23;20008;-89
2022/08/06 06:15:07;;;;;;;3.47;1.52;;;;;;;;;;6213282;23;20055;-89
2022/08/06 06:17:35;;;;;;;3.55;1.20;;;;;;;;;;6240546;23;20503;-89
2022/08/06 06:20:24;;;;;;;3.65;1.83;;;;;;;;;;6213858;23;20007;-89
2022/08/06 06:23:04;;;;;;;2.15;1.10;;;;;;;;;;6215427;22;20283;-89
2022/08/06 06:25:33;;;;;;;6.80;1.80;;;;;;;;;;6212705;23;20008;-89
2022/08/06 06:28:06;;;;;;;2.15;1.38;;;;;;;;;;6213685;23;20036;-89
2022/08/06 06:30:44;;;;;;;4.38;1.40;;;;;;;;;;6213298;23;20404;-89
2022/08/06 06:33:26;;;;;;;2.75;1.10;;;;;;;;;;6213227;23;20039;-89
2022/08/06 06:35:54;;;;;;;1.48;1.05;;;;;;;;;;6213332;23;20086;-89
2022/08/06 06:38:23;;;;;;;2.17;1.00;;;;;;;;;;6213793;23;20344;-89
2022/08/06 06:41:01;;;;;;;4.93;1.98;;;;;;;;;;6210562;23;20432;-89
2022/08/06 06:43:34;;;;;;;5.43;1.55;;;;;;;;;;6213523;23;20375;-89
2022/08/06 06:46:20;;;;;;;2.83;1.30;;;;;;;;;;6213098;23;20380;-90
2022/08/06 06:48:46;;;;;;;;;;;;;;;;;;6213670;23;20000;-89
2022/08/06 06:51:20;;;;;;;7.38;1.25;;;;;;;;;;6239662;23;20243;-90
2022/08/06 06:53:49;;;;;;;2.42;0.95;;;;;;;;;;6213393;23;20008;-90
2022/08/06 06:56:17;;;;;;;9.70;1.33;;;;;;;;;;6212081;23;20012;-90
2022/08/06 06:58:46;;;;;;;3.58;0.77;;;;;;;;;;6213124;23;20012;-90
2022/08/06 07:01:13;;;;;;;3.58;1.00;;;;;;;;;;6239684;23;20004;-90
2022/08/06 07:03:40;;;;;;;1.85;1.23;;;;;;;;;;6212510;23;20054;-90
2022/08/06 07:06:10;;;;;;;2.53;1.45;;;;;;;;;;6212684;23;20011;-90
2022/08/06 07:08:44;;;;;;;2.47;0.88;;;;;;;;;;6240052;23;20007;-90
2022/08/06 07:11:11;;;;;;;1.90;0.82;;;;;;;;;;6212101;23;20015;-90
2022/08/06 07:13:37;;;;;;;1.80;0.80;;;;;;;;;;6212439;23;20015;-91
2022/08/06 07:16:05;;;;;;;5.43;0.90;;;;;;;;;;6212642;23;20104;-90
2022/08/06 07:18:32;;;;;;;3.15;0.90;;;;;;;;;;6212814;23;20004;-90
2022/08/06 07:20:58;;;;;;;2.50;0.80;;;;;;;;;;6213042;23;20008;-89
2022/08/06 07:23:25;;;;;;;2.55;1.02;;;;;;;;;;6214191;22;20008;-90
2022/08/06 07:25:53;;;;;;;1.60;0.73;;;;;;;;;;6211817;23;20066;-90
2022/08/06 07:28:19;;;;;;;1.40;0.90;;;;;;;;;;6213335;23;20069;-90
2022/08/06 07:30:46;;;;;;;2.28;0.90;;;;;;;;;;6212482;23;20012;-90
2022/08/06 07:33:12;;;;;;;4.82;1.23;;;;;;;;;;6212851;23;20019;-90
2022/08/06 07:35:40;;;;;;;3.15;0.80;;;;;;;;;;6212193;23;20008;-90
2022/08/06 07:38:08;;;;;;;3.83;1.10;;;;;;;;;;6212642;23;20239;-89
2022/08/06 07:40:43;;;;;;;6.57;1.10;;;;;;;;;;6209863;23;20387;-90
2022/08/06 07:43:12;;;;;;;3.00;1.70;;;;;;;;;;6212203;23;20459;-90
2022/08/06 07:45:38;;;;;;;3.65;1.30;;;;;;;;;;6212193;23;20309;-90
2022/08/06 07:48:12;;;;;;;5.38;1.20;;;;;;;;;;6212693;23;20003;-90
2022/08/06 07:50:40;;;;;;;3.70;1.02;;;;;;;;;;6212951;23;20004;-90
2022/08/06 07:53:07;;;;;;;2.80;1.23;;;;;;;;;;6213031;23;20432;-90
2022/08/06 07:55:33;;;;;;;4.95;1.10;;;;;;;;;;6211906;23;20019;-90
2022/08/06 07:58:01;;;;;;;2.13;0.52;;;;;;;;;;6212526;23;20443;-90
2022/08/06 08:00:27;;;;;;;3.72;0.85;;;;;;;;;;6211911;23;20309;-90
2022/08/06 08:08:25;;;;;;;0.70;0.70;;;;;;;;;;6239705;23;20050;-90
2022/08/06 08:10:53;;;;;;;6.45;1.38;;;;;;;;;;6238551;23;20018;-90
2022/08/06 08:13:19;;;;;;;1.67;0.77;;;;;;;;;;6212718;23;20008;-90
2022/08/06 08:15:46;;;;;;;2.58;0.65;;;;;;;;;;6238992;23;20428;-90
2022/08/06 08:18:12;;;;;;;5.70;1.08;;;;;;;;;;6239720;23;20008;-90
2022/08/06 08:20:40;;;;;;;3.13;0.77;;;;;;;;;;6212139;23;20019;-90
2022/08/06 08:23:06;;;;;;;3.53;1.10;;;;;;;;;;6213923;22;20424;-90
2022/08/06 08:25:33;;;;;;;10.73;5.20;;;;;;;;;;6238109;23;20012;-90
2022/08/06 08:27:59;;;;;;;2.97;1.52;;;;;;;;;;6212238;23;20385;-90
2022/08/06 08:30:26;;;;;;;3.95;0.90;;;;;;;;;;6212226;23;20079;-90
2022/08/06 08:32:52;;;;;;;1.45;0.75;;;;;;;;;;6212357;23;20011;-89
2022/08/06 08:35:18;;;;;;;1.70;0.95;;;;;;;;;;6212338;23;20425;-90
2022/08/06 08:37:44;;;;;;;6.50;1.23;;;;;;;;;;6211859;23;20336;-90
2022/08/06 08:40:10;;;;;;;1.85;1.35;;;;;;;;;;6210165;23;20441;-90
2022/08/06 08:42:40;;;;;;;2.13;1.05;;;;;;;;;;6239263;23;20443;-90
2022/08/06 08:45:06;;;;;;;10.07;1.30;;;;;;;;;;6211585;23;20324;-90
2022/08/06 08:47:33;;;;;;;1.98;1.10;;;;;;;;;;6212323;23;20349;-89
2022/08/06 08:50:01;;;;;;;4.78;0.90;;;;;;;;;;6211649;23;20005;-90
2022/08/06 08:52:29;;;;;;;2.90;1.10;;;;;;;;;;6212252;23;20008;-90
2022/08/06 08:54:58;;;;;;;2.38;1.00;;;;;;;;;;6211799;23;20310;-89
2022/08/06 08:57:26;;;;;;;2.83;1.20;;;;;;;;;;6211826;23;20008;-90
2022/08/06 08:59:52;;;;;;;1.48;0.93;;;;;;;;;;6212026;23;20015;-90
2022/08/06 09:02:18;;;;;;;2.90;1.15;;;;;;;;;;6211851;23;20099;-89
2022/08/06 09:04:45;;;;;;;5.30;2.30;;;;;;;;;;6239292;23;20043;-89
2022/08/06 09:07:10;;;;;;;4.05;1.70;;;;;;;;;;6212181;23;20000;-89
2022/08/06 09:09:39;;;;;;;3.45;1.90;;;;;;;;;;6212676;23;20492;-90
2022/08/06 09:12:07;;;;;;;4.15;2.17;;;;;;;;;;6213305;23;20424;-90
2022/08/06 09:14:33;;;;;;;2.72;1.25;;;;;;;;;;6214237;23;20357;-89
2022/08/06 09:16:59;;;;;;;3.15;1.40;;;;;;;;;;6213763;23;20004;-90
2022/08/06 09:19:28;;;;;;;4.38;1.58;;;;;;;;;;6214006;23;20422;-90
2022/08/06 09:21:55;;;;;;;6.45;2.28;;;;;;;;;;6214127;22;20012;-89
2022/08/06 09:24:21;;;;;;;8.70;2.30;;;;;;;;;;6214181;23;20740;-90
2022/08/06 09:27:06;;;;;;;5.45;2.15;;;;;;;;;;6212282;23;20000;-90
2022/08/06 09:29:33;;;;;;;3.13;1.80;;;;;;;;;;6213686;23;20008;-90
2022/08/06 09:31:59;;;;;;;2.83;1.55;;;;;;;;;;6213004;23;20344;-90
2022/08/06 09:34:33;;;;;;;7.97;1.65;;;;;;;;;;6213964;23;20301;-90
2022/08/06 09:36:59;;;;;;;2.50;1.20;;;;;;;;;;6213604;23;20004;-89
2022/08/06 09:39:33;;;;;;;2.33;1.60;;;;;;;;;;6211925;23;20436;-89
2022/08/06 09:41:59;;;;;;;6.75;2.00;;;;;;;;;;6213042;23;20360;-90
2022/08/06 09:44:25;;;;;;;1.65;1.20;;;;;;;;;;6213611;23;20640;-90
2022/08/06 09:46:52;;;;;;;4.18;1.60;;;;;;;;;;6213452;23;20007;-89
2022/08/06 09:49:19;;;;;;;2.00;1.58;;;;;;;;;;6214309;23;20004;-90
2022/08/06 09:51:45;;;;;;;2.72;1.40;;;;;;;;;;6213463;23;20004;-90
2022/08/06 09:54:15;;;;;;;3.03;1.80;;;;;;;;;;6241161;23;20421;-90
2022/08/06 09:56:41;;;;;;;3.08;1.77;;;;;;;;;;6212628;23;20069;-90
2022/08/06 09:59:08;;;;;;;6.22;1.50;;;;;;;;;;6214436;23;20095;-90
2022/08/06 10:01:42;;;;;;;1.75;1.35;;;;;;;;;;6213630;23;20004;-89
2022/08/06 10:04:12;;;;;;;2.75;1.38;;;;;;;;;;6242172;23;19997;-90
2022/08/06 10:06:50;;;;;;;2.25;1.70;;;;;;;;;;6241851;23;20004;-90
2022/08/06 10:09:16;;;;;;;4.25;1.70;;;;;;;;;;6218249;23;20000;-89
2022/08/06 10:11:42;;;;;;;3.28;1.58;;;;;;;;;;6216533;23;20008;-89
2022/08/06 10:14:21;;;;;;;3.25;1.58;;;;;;;;;;6221440;23;20087;-89
2022/08/06 10:17:03;;;;;;;2.47;1.90;;;;;;;;;;6217975;23;20008;-89
2022/08/06 10:19:29;;;;;;;4.70;2.08;;;;;;;;;;6218843;23;20023;-89
2022/08/06 10:21:55;;;;;;;2.55;1.80;;;;;;;;;;6218031;22;20008;-91
2022/08/06 10:24:21;;;;;;;4.03;2.42;;;;;;;;;;6219047;23;20315;-89
2022/08/06 10:26:48;;;;;;;3.80;1.75;;;;;;;;;;6219754;23;20012;-89
2022/08/06 10:29:16;;;;;;;5.57;1.85;;;;;;;;;;6220820;23;20490;-89
2022/08/06 10:31:42;;;;;;;7.78;1.80;;;;;;;;;;6245345;23;20126;-89
2022/08/06 10:34:12;;;;;;;3.40;1.77;;;;;;;;;;6215551;23;20011;-90
2022/08/06 10:36:44;;;;;;;4.40;1.90;;;;;;;;;;6213439;23;20019;-90
2022/08/06 10:39:10;;;;;;;4.03;1.45;;;;;;;;;;6212959;23;20385;-90
2022/08/06 10:41:38;;;;;;;2.10;1.52;;;;;;;;;;6212763;23;20008;-90
2022/08/06 10:44:05;;;;;;;2.22;1.58;;;;;;;;;;6213841;23;20019;-89
2022/08/06 10:46:32;;;;;;;2.58;1.83;;;;;;;;;;6212790;23;20004;-89
2022/08/06 10:48:59;;;;;;;2.75;1.88;;;;;;;;;;6213184;23;20036;-90
2022/08/06 10:51:31;;;;;;;3.15;1.75;;;;;;;;;;6212702;23;20043;-89
2022/08/06 10:53:57;;;;;;;5.00;2.03;;;;;;;;;;6213308;23;20038;-90
2022/08/06 10:56:26;;;;;;;2.72;2.03;;;;;;;;;;6211791;23;20012;-89
2022/08/06 10:58:52;;;;;;;2.55;2.08;;;;;;;;;;6213344;23;20456;-90
2022/08/06 11:01:37;;;;;;;4.38;2.03;;;;;;;;;;6214201;23;20066;-89
2022/08/06 11:04:06;;;;;;;3.63;2.28;;;;;;;;;;6213321;23;20004;-89
2022/08/06 11:06:42;;;;;;;1.70;1.60;;;;;;;;;;6212003;23;20001;-90
2022/08/06 11:09:08;;;;;;;4.78;2.50;;;;;;;;;;6213174;23;20006;-89
2022/08/06 11:11:34;;;;;;;3.85;2.53;;;;;;;;;;6238954;23;20031;-89
2022/08/06 11:14:06;;;;;;;2.90;2.53;;;;;;;;;;6212976;23;20437;-90
2022/08/06 11:16:32;;;;;;;5.50;2.17;;;;;;;;;;6212669;23;20091;-90
2022/08/06 11:19:06;;;;;;;4.13;2.30;;;;;;;;;;6212341;23;20122;-90
2022/08/06 11:21:40;;;;;;;2.08;1.88;;;;;;;;;;6212087;23;20015;-89
2022/08/06 11:24:20;;;;;;;3.70;2.25;;;;;;;;;;6188816;22;20009;-90
2022/08/06 11:26:47;;;;;;;2.50;1.98;;;;;;;;;;6181588;23;20001;-90
2022/08/06 11:29:17;;;;;;;2.97;2.10;;;;;;;;;;6183092;23;20083;-90
2022/08/06 11:31:47;;;;;;;5.40;2.35;;;;;;;;;;6209442;23;20073;-90
2022/08/06 11:34:14;;;;;;;2.63;2.25;;;;;;;;;;6182348;23;20012;-89
2022/08/06 11:36:59;;;;;;;4.43;2.78;;;;;;;;;;6182390;23;20027;-89
2022/08/06 11:39:27;;;;;;;6.80;2.90;;;;;;;;;;6207642;23;20004;-90
2022/08/06 11:41:53;;;;;;;4.68;2.92;;;;;;;;;;6181337;23;20353;-89
2022/08/06 11:44:20;;;;;;;5.10;3.22;;;;;;;;;;6182547;23;20364;-90
2022/08/06 11:46:47;;;;;;;2.92;2.63;;;;;;;;;;6182484;23;20433;-90
2022/08/06 11:49:16;;;;;;;4.53;2.70;;;;;;;;;;6182519;23;20020;-90
2022/08/06 11:51:42;;;;;;;5.72;3.42;;;;;;;;;;6182167;23;20008;-89
2022/08/06 11:54:12;;;;;;;4.88;3.13;;;;;;;;;;6182801;23;20019;-90
2022/08/06 11:56:57;;;;;;;5.00;2.80;;;;;;;;;;6181435;23;20020;-89
2022/08/06 11:59:23;;;;;;;4.00;3.30;;;;;;;;;;6182479;23;20009;-89
2022/08/06 12:01:49;;;;;;;3.42;2.80;;;;;;;;;;6181963;23;20062;-89
2022/08/06 12:04:54;;;;;;;4.40;3.42;;;;;;;;;;6182319;23;20011;-90
2022/08/06 12:07:23;;;;;;;4.32;3.20;;;;;;;;;;6058548;23;20328;-89
2022/08/06 12:10:03;;;;;;;4.82;3.40;;;;;;;;;;6034391;23;20030;-90
2022/08/06 12:12:32;;;;;;;5.32;3.65;;;;;;;;;;6121196;23;20637;-90
2022/08/06 12:15:26;;;;;;;6.90;3.45;;;;;;;;;;6182293;23;20078;-90
2022/08/06 12:17:57;;;;;;;4.22;3.72;;;;;;;;;;6127311;23;20027;-90
2022/08/06 12:20:40;;;;;;;4.97;3.78;;;;;;;;;;6182202;23;20096;-89
2022/08/06 12:23:07;;;;;;;4.75;3.08;;;;;;;;;;6185204;22;20087;-90
2022/08/06 12:25:35;;;;;;;4.35;3.47;;;;;;;;;;6181234;23;20421;-90
2022/08/06 12:28:01;;;;;;;6.07;3.20;;;;;;;;;;6182327;23;20001;-90
2022/08/06 12:30:28;;;;;;;4.05;3.58;;;;;;;;;;6182444;23;20012;-90
2022/08/06 12:33:00;;;;;;;15.80;4.25;;;;;;;;;;6182160;23;20035;-90
2022/08/06 12:35:27;;;;;;;21.20;4.00;;;;;;;;;;6181985;23;20661;-90
2022/08/06 12:37:54;;;;;;;5.20;3.42;;;;;;;;;;6182063;23;20190;-89
2022/08/06 12:40:23;;;;;;;10.70;4.25;;;;;;;;;;6180042;23;20008;-90
2022/08/06 12:43:10;;;;;;;15.85;3.95;;;;;;;;;;6182389;23;20051;-90
2022/08/06 12:45:37;;;;;;;11.32;3.38;;;;;;;;;;6183397;23;20012;-90
2022/08/06 12:48:13;;;;;;;4.72;3.60;;;;;;;;;;6184144;23;20008;-89
2022/08/06 12:50:40;;;;;;;4.82;3.30;;;;;;;;;;6184534;23;20009;-90
2022/08/06 12:53:06;;;;;;;4.47;3.30;;;;;;;;;;6184104;23;20001;-91
2022/08/06 12:55:33;;;;;;;4.88;3.35;;;;;;;;;;6183574;23;20012;-90
2022/08/06 12:58:00;;;;;;;7.88;3.60;;;;;;;;;;6183925;23;20058;-90
2022/08/06 13:00:26;;;;;;;5.13;3.63;;;;;;;;;;6183747;23;20087;-90
2022/08/06 13:02:52;;;;;;;6.03;3.28;;;;;;;;;;6210941;23;20092;-90
2022/08/06 13:05:19;;;;;;;5.85;3.17;;;;;;;;;;6183853;23;20005;-90
2022/08/06 13:07:45;;;;;;;4.80;3.50;;;;;;;;;;6184388;23;20016;-89
2022/08/06 13:10:12;;;;;;;4.22;3.05;;;;;;;;;;6182981;23;20012;-90
2022/08/06 13:12:39;;;;;;;3.47;2.88;;;;;;;;;;6184032;23;20016;-90
2022/08/06 13:15:12;;;;;;;5.32;3.10;;;;;;;;;;6184115;23;20559;-90
2022/08/06 13:17:38;;;;;;;6.25;2.75;;;;;;;;;;6184393;23;20004;-90
2022/08/06 13:20:04;;;;;;;5.07;3.42;;;;;;;;;;6211278;23;20328;-90
2022/08/06 13:22:30;;;;;;;7.15;3.20;;;;;;;;;;6188063;22;20012;-89
2022/08/06 13:25:09;;;;;;;5.03;3.50;;;;;;;;;;6213489;23;20008;-89
2022/08/06 13:27:38;;;;;;;4.40;3.30;;;;;;;;;;6214269;23;20004;-89
2022/08/06 13:30:06;;;;;;;4.30;3.42;;;;;;;;;;6213704;23;20007;-89
2022/08/06 13:32:32;;;;;;;10.00;3.50;;;;;;;;;;6241021;23;20031;-90
2022/08/06 13:34:58;;;;;;;6.80;3.47;;;;;;;;;;6213871;23;20395;-90
2022/08/06 13:37:43;;;;;;;7.57;3.17;;;;;;;;;;6213726;23;20008;-89
2022/08/06 13:40:10;;;;;;;3.47;3.17;;;;;;;;;;6211825;23;20440;-90
2022/08/06 13:42:48;;;;;;;5.93;3.70;;;;;;;;;;6214354;23;20008;-90
2022/08/06 13:45:19;;;;;;;4.13;3.33;;;;;;;;;;6213692;23;20004;-89
2022/08/06 13:47:45;;;;;;;4.07;3.03;;;;;;;;;;6213710;23;20053;-89
2022/08/06 13:50:11;;;;;;;4.88;3.10;;;;;;;;;;6213267;23;20087;-90
2022/08/06 13:52:37;;;;;;;5.07;3.47;;;;;;;;;;6213783;23;20011;-90
2022/08/06 13:55:03;;;;;;;6.22;2.90;;;;;;;;;;6239855;23;20031;-90
2022/08/06 13:57:35;;;;;;;4.88;3.10;;;;;;;;;;6213490;23;20440;-90
2022/08/06 14:00:01;;;;;;;3.40;3.10;;;;;;;;;;6213172;23;20376;-90
2022/08/06 14:02:27;;;;;;;3.03;2.72;;;;;;;;;;6214053;23;20008;-90
2022/08/06 14:04:53;;;;;;;6.93;3.30;;;;;;;;;;6213260;23;20527;-90
2022/08/06 14:07:19;;;;;;;4.18;3.17;;;;;;;;;;6213773;23;20007;-90
2022/08/06 14:09:45;;;;;;;4.05;3.05;;;;;;;;;;6240258;23;20070;-90
2022/08/06 14:12:11;;;;;;;3.40;2.90;;;;;;;;;;6240461;23;20007;-89
2022/08/06 14:14:37;;;;;;;6.88;2.58;;;;;;;;;;6213334;23;20008;-89
2022/08/06 14:17:03;;;;;;;4.63;3.35;;;;;;;;;;6213976;23;20443;-90
2022/08/06 14:19:29;;;;;;;6.32;3.05;;;;;;;;;;6213638;23;20010;-90
2022/08/06 14:21:56;;;;;;;5.07;3.22;;;;;;;;;;6213658;23;20062;-89
2022/08/06 14:24:22;;;;;;;3.25;2.65;;;;;;;;;;6191137;22;20039;-89
2022/08/06 14:26:48;;;;;;;2.78;2.47;;;;;;;;;;6183507;23;20087;-90
2022/08/06 14:29:14;;;;;;;3.72;2.83;;;;;;;;;;6184287;23;20013;-89
2022/08/06 14:31:40;;;;;;;3.50;2.80;;;;;;;;;;6214800;23;20396;-88
2022/08/06 14:34:06;;;;;;;4.55;3.10;;;;;;;;;;6186524;23;20369;-90
2022/08/06 14:36:32;;;;;;;6.00;2.60;;;;;;;;;;6189427;23;20427;-88
2022/08/06 14:38:59;;;;;;;5.00;2.72;;;;;;;;;;6186225;23;20009;-89
2022/08/06 14:46:55;;;;;;;;;;;;;;;;;;6213901;23;20459;-89
2022/08/06 14:49:21;;;;;;;4.95;2.35;;;;;;;;;;6185889;23;19904;-90
2022/08/06 14:51:47;;;;;;;3.88;2.88;;;;;;;;;;6210815;23;20012;-89
2022/08/06 14:54:14;;;;;;;2.42;2.10;;;;;;;;;;6184109;23;20441;-89
2022/08/06 14:56:40;;;;;;;3.15;2.65;;;;;;;;;;6183116;23;20326;-90
2022/08/06 14:59:06;;;;;;;9.65;2.42;;;;;;;;;;6210495;23;20011;-90
2022/08/06 15:01:33;;;;;;;4.97;2.40;;;;;;;;;;6183035;23;20008;-90
2022/08/06 15:03:59;;;;;;;5.18;2.58;;;;;;;;;;6183035;23;20083;-89